Time;durP1;ratioP1;P1;durP2;ratioP2;P2;SDS_P1;SDS_P2;PMS_P1;PMS_P2;Temp;Humidity;BMP_temperature;BMP_pressure;BME280_temperature;BME280_humidity;BME280_pressure;Samples;Min_cycle;Max_cycle;Signal;HPM_P1;HPM_P2
2023/04/21 00:00:12;;;;;;;10.75;2.70;;;;;;;;;;2049571;28;20054;-64
2023/04/21 00:01:31;;;;;;;8.05;2.67;;;;;;;;;;2049588;28;20063;-64
2023/04/21 00:02:50;;;;;;;4.35;2.40;;;;;;;;;;2050437;28;20377;-64
2023/04/21 00:04:12;;;;;;;10.88;2.75;;;;;;;;;;2051948;28;20146;-64
2023/04/21 00:05:32;;;;;;;6.85;2.13;;;;;;;;;;2052584;28;20034;-64
2023/04/21 00:06:52;;;;;;;6.35;2.58;;;;;;;;;;2050682;28;20122;-64
2023/04/21 00:08:11;;;;;;;4.13;2.63;;;;;;;;;;2048143;28;20121;-64
2023/04/21 00:09:30;;;;;;;5.13;2.10;;;;;;;;;;2053488;28;20492;-64
2023/04/21 00:10:49;;;;;;;6.00;2.47;;;;;;;;;;2051946;28;20038;-64
2023/04/21 00:12:08;;;;;;;14.18;2.63;;;;;;;;;;2048187;28;20031;-64
2023/04/21 00:13:27;;;;;;;2.63;2.20;;;;;;;;;;2043703;28;20038;-64
2023/04/21 00:14:46;;;;;;;3.20;2.58;;;;;;;;;;2048685;28;20521;-64
2023/04/21 00:16:05;;;;;;;5.57;1.95;;;;;;;;;;2049344;28;20035;-64
2023/04/21 00:17:24;;;;;;;4.57;2.50;;;;;;;;;;2052355;28;20031;-64
2023/04/21 00:18:43;;;;;;;4.97;2.50;;;;;;;;;;2051643;28;20062;-64
2023/04/21 00:20:03;;;;;;;2.65;2.00;;;;;;;;;;2054037;28;20051;-64
2023/04/21 00:21:22;;;;;;;11.25;3.00;;;;;;;;;;2054552;28;20019;-64
2023/04/21 00:22:41;;;;;;;6.35;2.97;;;;;;;;;;2054497;28;20035;-64
2023/04/21 00:24:01;;;;;;;7.70;2.65;;;;;;;;;;2053613;28;20046;-64
2023/04/21 00:25:20;;;;;;;9.18;2.60;;;;;;;;;;2053515;28;20039;-64
2023/04/21 00:26:39;;;;;;;8.35;2.47;;;;;;;;;;2054332;28;20110;-64
2023/04/21 00:27:58;;;;;;;5.95;2.60;;;;;;;;;;2053360;28;20046;-64
2023/04/21 00:29:17;;;;;;;11.65;2.78;;;;;;;;;;2053478;28;20035;-64
2023/04/21 00:30:36;;;;;;;7.93;2.75;;;;;;;;;;2051139;28;20035;-65
2023/04/21 00:31:55;;;;;;;7.10;2.28;;;;;;;;;;2053155;28;21076;-64
2023/04/21 00:33:14;;;;;;;7.60;2.60;;;;;;;;;;2050235;28;20019;-63
2023/04/21 00:34:33;;;;;;;10.25;2.78;;;;;;;;;;2050406;28;20035;-64
2023/04/21 00:35:53;;;;;;;4.70;2.30;;;;;;;;;;2052898;28;20031;-64
2023/04/21 00:37:12;;;;;;;5.88;2.70;;;;;;;;;;2052751;28;20071;-64
2023/04/21 00:38:31;;;;;;;5.65;2.65;;;;;;;;;;2056038;28;20035;-64
2023/04/21 00:39:50;;;;;;;6.82;2.67;;;;;;;;;;2044260;28;20424;-63
2023/04/21 00:41:09;;;;;;;9.77;2.53;;;;;;;;;;2049468;28;20118;-64
2023/04/21 00:42:28;;;;;;;2.95;2.38;;;;;;;;;;2050191;28;20031;-64
2023/04/21 00:44:04;;;;;;;7.03;2.50;;;;;;;;;;2048516;28;20062;-63
2023/04/21 00:45:23;;;;;;;4.35;2.30;;;;;;;;;;2053580;28;20019;-63
2023/04/21 00:46:42;;;;;;;7.53;3.13;;;;;;;;;;2052588;28;20035;-65
2023/04/21 00:48:01;;;;;;;8.88;3.28;;;;;;;;;;2049959;28;20117;-63
2023/04/21 00:49:22;;;;;;;6.75;2.70;;;;;;;;;;2053025;28;20026;-64
2023/04/21 00:50:42;;;;;;;5.20;2.50;;;;;;;;;;2051124;28;20039;-63
2023/04/21 00:52:03;;;;;;;9.38;2.78;;;;;;;;;;2052845;28;20489;-64
2023/04/21 00:53:22;;;;;;;8.38;2.22;;;;;;;;;;2054605;28;20117;-64
2023/04/21 00:54:41;;;;;;;7.10;2.42;;;;;;;;;;2052812;28;20610;-64
2023/04/21 00:56:00;;;;;;;4.57;2.50;;;;;;;;;;2053350;28;20481;-64
2023/04/21 00:57:19;;;;;;;7.13;2.50;;;;;;;;;;2050783;28;20039;-64
2023/04/21 00:58:41;;;;;;;13.90;3.15;;;;;;;;;;2051211;28;20118;-62
2023/04/21 01:00:01;;;;;;;9.48;3.28;;;;;;;;;;2053389;28;20610;-64
2023/04/21 01:01:20;;;;;;;9.75;2.90;;;;;;;;;;2054077;28;20488;-63
2023/04/21 01:02:39;;;;;;;5.30;2.63;;;;;;;;;;2051728;28;20030;-63
2023/04/21 01:03:59;;;;;;;5.22;3.08;;;;;;;;;;2053479;28;20043;-64
2023/04/21 01:05:19;;;;;;;4.15;2.15;;;;;;;;;;2053518;28;20495;-64
2023/04/21 01:06:40;;;;;;;3.47;2.40;;;;;;;;;;2053028;28;20034;-64
2023/04/21 01:08:00;;;;;;;8.05;2.67;;;;;;;;;;2046305;28;20118;-64
2023/04/21 01:09:19;;;;;;;7.10;2.65;;;;;;;;;;2049024;28;20035;-64
2023/04/21 01:10:39;;;;;;;4.38;2.40;;;;;;;;;;2049405;28;20512;-64
2023/04/21 01:12:16;;;;;;;10.95;2.60;;;;;;;;;;2052263;28;20039;-64
2023/04/21 01:13:35;;;;;;;13.77;2.42;;;;;;;;;;2054914;28;20022;-65
2023/04/21 01:14:54;;;;;;;6.07;2.75;;;;;;;;;;2052522;28;20039;-62
2023/04/21 01:16:17;;;;;;;7.28;2.50;;;;;;;;;;2052192;28;20026;-63
2023/04/21 01:17:37;;;;;;;2.97;2.13;;;;;;;;;;2053305;28;20035;-63
2023/04/21 01:18:56;;;;;;;8.68;2.90;;;;;;;;;;2053238;28;20035;-64
2023/04/21 01:20:15;;;;;;;7.75;3.10;;;;;;;;;;2050600;28;20027;-63
2023/04/21 01:21:39;;;;;;;4.13;2.28;;;;;;;;;;2052650;28;20038;-65
2023/04/21 01:22:58;;;;;;;9.68;2.80;;;;;;;;;;2054253;28;20432;-64
2023/04/21 01:24:17;;;;;;;5.25;3.05;;;;;;;;;;2051921;28;20051;-65
2023/04/21 01:25:36;;;;;;;9.73;2.60;;;;;;;;;;2052205;28;20027;-63
2023/04/21 01:26:55;;;;;;;4.45;2.72;;;;;;;;;;2051880;28;20039;-64
2023/04/21 01:28:14;;;;;;;5.05;2.47;;;;;;;;;;2052648;28;20042;-63
2023/04/21 01:29:33;;;;;;;6.57;2.72;;;;;;;;;;2051997;28;20118;-63
2023/04/21 01:30:52;;;;;;;4.63;2.35;;;;;;;;;;2051203;28;20039;-63
2023/04/21 01:32:13;;;;;;;4.85;2.45;;;;;;;;;;2053034;28;20455;-64
2023/04/21 01:33:32;;;;;;;3.53;2.65;;;;;;;;;;2053430;28;20038;-68
2023/04/21 01:34:51;;;;;;;3.85;2.53;;;;;;;;;;2052431;28;20134;-63
2023/04/21 01:36:10;;;;;;;2.83;2.10;;;;;;;;;;2052736;28;20127;-65
2023/04/21 01:37:30;;;;;;;6.72;2.70;;;;;;;;;;2052126;28;20520;-65
2023/04/21 01:38:49;;;;;;;5.97;2.22;;;;;;;;;;2051347;28;20039;-65
2023/04/21 01:40:09;;;;;;;5.10;2.60;;;;;;;;;;2051268;28;20030;-64
2023/04/21 01:41:28;;;;;;;3.20;2.47;;;;;;;;;;2052505;28;20431;-65
2023/04/21 01:42:47;;;;;;;4.45;2.60;;;;;;;;;;2054541;28;20038;-65
2023/04/21 01:44:06;;;;;;;7.20;2.90;;;;;;;;;;2051692;28;20034;-63
2023/04/21 01:45:25;;;;;;;5.57;2.78;;;;;;;;;;2049435;28;20043;-63
2023/04/21 01:46:44;;;;;;;4.00;2.47;;;;;;;;;;2052737;28;20058;-64
2023/04/21 01:48:03;;;;;;;4.10;2.20;;;;;;;;;;2052868;28;20776;-64
2023/04/21 01:49:22;;;;;;;3.05;2.72;;;;;;;;;;2052473;28;20030;-64
2023/04/21 01:50:41;;;;;;;4.03;2.45;;;;;;;;;;2053110;28;20043;-63
2023/04/21 01:52:00;;;;;;;7.30;2.83;;;;;;;;;;2051593;28;20919;-63
2023/04/21 01:53:19;;;;;;;6.32;2.20;;;;;;;;;;2052199;28;20062;-63
2023/04/21 01:54:38;;;;;;;4.63;2.50;;;;;;;;;;2051724;28;20468;-63
2023/04/21 01:55:56;;;;;;;5.47;2.70;;;;;;;;;;2050800;28;20027;-65
2023/04/21 01:57:16;;;;;;;5.68;2.42;;;;;;;;;;2050807;28;20074;-63
2023/04/21 01:58:35;;;;;;;5.10;2.90;;;;;;;;;;2052470;28;20114;-64
2023/04/21 01:59:54;;;;;;;4.07;2.47;;;;;;;;;;2051089;28;20125;-64
2023/04/21 02:01:13;;;;;;;7.28;2.70;;;;;;;;;;2051447;28;20106;-63
2023/04/21 02:02:32;;;;;;;8.35;2.97;;;;;;;;;;2052951;28;20456;-64
2023/04/21 02:03:51;;;;;;;6.85;2.90;;;;;;;;;;2051284;28;20039;-64
2023/04/21 02:05:10;;;;;;;7.93;3.00;;;;;;;;;;2051179;28;20420;-64
2023/04/21 02:06:32;;;;;;;11.32;2.78;;;;;;;;;;2052046;28;20035;-64
2023/04/21 02:07:51;;;;;;;5.25;2.45;;;;;;;;;;2051304;28;20499;-63
2023/04/21 02:09:10;;;;;;;12.13;3.03;;;;;;;;;;2051193;28;20035;-63
2023/04/21 02:10:29;;;;;;;8.65;3.22;;;;;;;;;;2050619;28;20484;-64
2023/04/21 02:11:48;;;;;;;8.13;2.90;;;;;;;;;;2050057;28;20461;-63
2023/04/21 02:13:06;;;;;;;5.55;2.60;;;;;;;;;;2053072;28;20023;-64
2023/04/21 02:14:26;;;;;;;13.82;3.47;;;;;;;;;;2050885;28;20406;-64
2023/04/21 02:15:45;;;;;;;10.93;2.80;;;;;;;;;;2051473;28;20666;-63
2023/04/21 02:17:04;;;;;;;11.10;3.33;;;;;;;;;;2049952;28;20030;-63
2023/04/21 02:18:23;;;;;;;10.55;3.55;;;;;;;;;;2052152;28;20435;-64
2023/04/21 02:19:42;;;;;;;12.65;3.38;;;;;;;;;;2052715;28;20038;-64
2023/04/21 02:21:01;;;;;;;9.80;3.25;;;;;;;;;;2054718;28;20022;-64
2023/04/21 02:22:21;;;;;;;18.80;3.33;;;;;;;;;;2051656;28;20019;-63
2023/04/21 02:23:40;;;;;;;14.07;3.50;;;;;;;;;;2051378;28;20018;-64
2023/04/21 02:24:59;;;;;;;16.58;4.30;;;;;;;;;;2051309;28;20015;-63
2023/04/21 02:26:18;;;;;;;18.00;4.18;;;;;;;;;;2050586;28;20507;-63
2023/04/21 02:27:37;;;;;;;13.32;4.75;;;;;;;;;;2047817;28;20042;-66
2023/04/21 02:28:56;;;;;;;13.73;3.88;;;;;;;;;;2053621;28;20023;-64
2023/04/21 02:30:15;;;;;;;12.43;3.50;;;;;;;;;;2053355;28;20042;-63
2023/04/21 02:31:34;;;;;;;17.17;3.80;;;;;;;;;;2048826;28;20110;-64
2023/04/21 02:32:53;;;;;;;7.97;3.00;;;;;;;;;;2051863;28;20027;-64
2023/04/21 02:34:12;;;;;;;16.88;3.45;;;;;;;;;;2052574;28;20496;-64
2023/04/21 02:35:32;;;;;;;9.90;3.63;;;;;;;;;;2049876;28;20388;-64
2023/04/21 02:36:51;;;;;;;13.75;3.88;;;;;;;;;;2051503;28;20035;-64
2023/04/21 02:38:10;;;;;;;11.77;2.97;;;;;;;;;;2053647;28;20042;-64
2023/04/21 02:39:29;;;;;;;9.60;3.45;;;;;;;;;;2052688;28;20042;-64
2023/04/21 02:40:49;;;;;;;26.35;3.78;;;;;;;;;;2045298;28;20088;-63
2023/04/21 02:42:08;;;;;;;24.67;5.10;;;;;;;;;;2047946;28;20043;-63
2023/04/21 02:43:27;;;;;;;17.40;4.50;;;;;;;;;;2048856;28;20452;-66
2023/04/21 02:44:46;;;;;;;10.35;3.70;;;;;;;;;;2049592;28;20488;-64
2023/04/21 02:46:06;;;;;;;13.48;3.97;;;;;;;;;;2048271;28;20039;-64
2023/04/21 02:47:25;;;;;;;9.43;3.40;;;;;;;;;;2050098;28;20556;-64
2023/04/21 02:48:44;;;;;;;8.70;3.35;;;;;;;;;;2049295;28;20035;-65
2023/04/21 02:50:03;;;;;;;7.40;3.47;;;;;;;;;;2049590;28;20043;-64
2023/04/21 02:51:22;;;;;;;16.70;3.90;;;;;;;;;;2049854;28;20027;-63
2023/04/21 02:52:40;;;;;;;15.02;3.72;;;;;;;;;;2049955;28;20471;-64
2023/04/21 02:54:00;;;;;;;15.18;3.67;;;;;;;;;;2051186;28;20400;-64
2023/04/21 02:55:18;;;;;;;20.48;4.20;;;;;;;;;;2048668;28;20054;-63
2023/04/21 02:56:37;;;;;;;19.55;3.63;;;;;;;;;;2051532;28;20299;-63
2023/04/21 02:57:57;;;;;;;8.70;3.92;;;;;;;;;;2050761;28;20059;-64
2023/04/21 02:59:16;;;;;;;21.55;4.00;;;;;;;;;;2052447;28;20045;-63
2023/04/21 03:00:35;;;;;;;21.08;4.03;;;;;;;;;;2050981;28;20540;-64
2023/04/21 03:01:54;;;;;;;15.32;3.90;;;;;;;;;;2053828;28;20035;-64
2023/04/21 03:03:14;;;;;;;13.05;4.13;;;;;;;;;;2049124;28;20039;-63
2023/04/21 03:04:33;;;;;;;23.35;4.80;;;;;;;;;;2049297;28;20039;-64
2023/04/21 03:06:02;;;;;;;26.67;5.10;;;;;;;;;;2050202;28;20921;-64
2023/04/21 03:07:21;;;;;;;15.60;4.25;;;;;;;;;;2050789;28;20393;-64
2023/04/21 03:08:41;;;;;;;26.70;4.90;;;;;;;;;;2050952;28;20030;-63
2023/04/21 03:10:00;;;;;;;28.50;4.43;;;;;;;;;;2050076;28;20505;-63
2023/04/21 03:11:19;;;;;;;16.08;5.05;;;;;;;;;;2051289;28;20035;-63
2023/04/21 03:12:38;;;;;;;19.52;4.68;;;;;;;;;;2050930;28;20480;-63
2023/04/21 03:13:57;;;;;;;22.33;4.32;;;;;;;;;;2049762;28;20039;-63
2023/04/21 03:15:16;;;;;;;27.13;4.53;;;;;;;;;;2051441;28;20026;-64
2023/04/21 03:16:34;;;;;;;25.20;5.30;;;;;;;;;;2049384;28;20030;-63
2023/04/21 03:17:53;;;;;;;24.55;4.82;;;;;;;;;;2050558;28;20038;-63
2023/04/21 03:19:12;;;;;;;24.85;4.95;;;;;;;;;;2050878;28;20053;-63
2023/04/21 03:20:31;;;;;;;24.20;4.80;;;;;;;;;;2051730;28;20059;-63
2023/04/21 03:21:50;;;;;;;26.58;5.53;;;;;;;;;;2048275;28;20047;-63
2023/04/21 03:23:09;;;;;;;22.52;4.50;;;;;;;;;;2051260;28;20058;-63
2023/04/21 03:24:28;;;;;;;18.40;4.65;;;;;;;;;;2051559;28;20113;-64
2023/04/21 03:25:47;;;;;;;20.38;5.18;;;;;;;;;;2050974;28;20023;-66
2023/04/21 03:27:06;;;;;;;23.85;4.43;;;;;;;;;;2050061;28;20031;-63
2023/04/21 03:28:25;;;;;;;30.83;5.10;;;;;;;;;;2049413;28;20423;-64
2023/04/21 03:29:44;;;;;;;35.95;5.75;;;;;;;;;;2049465;28;20030;-64
2023/04/21 03:31:03;;;;;;;31.23;4.72;;;;;;;;;;2048775;28;20031;-63
2023/04/21 03:32:22;;;;;;;19.20;5.03;;;;;;;;;;2048746;28;20027;-63
2023/04/21 03:33:41;;;;;;;23.00;4.75;;;;;;;;;;2048245;28;20030;-62
2023/04/21 03:35:00;;;;;;;34.08;5.03;;;;;;;;;;2049790;28;20038;-63
2023/04/21 03:36:19;;;;;;;25.55;5.40;;;;;;;;;;2050162;28;21655;-64
2023/04/21 03:37:38;;;;;;;17.00;4.20;;;;;;;;;;2047774;28;20502;-63
2023/04/21 03:38:57;;;;;;;23.50;5.65;;;;;;;;;;2048687;28;20039;-63
2023/04/21 03:40:16;;;;;;;19.75;5.43;;;;;;;;;;2052354;28;20043;-63
2023/04/21 03:41:35;;;;;;;20.40;3.83;;;;;;;;;;2053038;28;21289;-64
2023/04/21 03:42:54;;;;;;;15.35;4.30;;;;;;;;;;2053647;28;20467;-63
2023/04/21 03:44:13;;;;;;;19.23;4.35;;;;;;;;;;2053132;28;20035;-62
2023/04/21 03:45:34;;;;;;;10.80;4.40;;;;;;;;;;2053656;28;20023;-63
2023/04/21 03:46:53;;;;;;;23.50;4.38;;;;;;;;;;2055440;28;20030;-63
2023/04/21 03:48:12;;;;;;;21.85;5.15;;;;;;;;;;2051321;28;20043;-66
2023/04/21 03:49:34;;;;;;;28.55;4.72;;;;;;;;;;2053030;28;20023;-63
2023/04/21 03:50:53;;;;;;;26.00;5.50;;;;;;;;;;2050983;28;20031;-63
2023/04/21 03:52:12;;;;;;;39.42;5.95;;;;;;;;;;2052096;28;20392;-65
2023/04/21 03:53:31;;;;;;;25.38;5.47;;;;;;;;;;2054164;28;20034;-63
2023/04/21 03:54:50;;;;;;;29.05;5.60;;;;;;;;;;2054486;28;20408;-63
2023/04/21 03:56:09;;;;;;;33.47;4.90;;;;;;;;;;2054386;28;20133;-63
2023/04/21 03:57:28;;;;;;;33.75;6.10;;;;;;;;;;2052966;28;20039;-63
2023/04/21 03:58:48;;;;;;;44.58;5.88;;;;;;;;;;2053491;28;20376;-63
2023/04/21 04:00:09;;;;;;;27.20;5.43;;;;;;;;;;2050818;28;20066;-63
2023/04/21 04:01:28;;;;;;;30.70;6.60;;;;;;;;;;2053096;28;20281;-63
2023/04/21 04:02:47;;;;;;;28.70;5.68;;;;;;;;;;2054616;28;20035;-64
2023/04/21 04:04:06;;;;;;;27.17;5.45;;;;;;;;;;2052043;28;20047;-63
2023/04/21 04:05:25;;;;;;;16.10;4.40;;;;;;;;;;2053726;28;20038;-62
2023/04/21 04:06:44;;;;;;;16.38;5.13;;;;;;;;;;2054929;28;20454;-63
2023/04/21 04:08:03;;;;;;;22.95;5.60;;;;;;;;;;2056497;28;20038;-63
2023/04/21 04:09:22;;;;;;;24.23;5.07;;;;;;;;;;2053750;28;20030;-62
2023/04/21 04:10:41;;;;;;;25.05;5.00;;;;;;;;;;2052861;28;20063;-63
2023/04/21 04:12:02;;;;;;;29.52;5.68;;;;;;;;;;2050763;28;20023;-66
2023/04/21 04:13:21;;;;;;;27.00;4.70;;;;;;;;;;2052684;28;20026;-63
2023/04/21 04:14:40;;;;;;;29.33;5.25;;;;;;;;;;2052505;28;20031;-63
2023/04/21 04:15:59;;;;;;;21.95;5.30;;;;;;;;;;2051215;28;20039;-63
2023/04/21 04:17:18;;;;;;;14.50;3.97;;;;;;;;;;2053659;28;20034;-63
2023/04/21 04:18:37;;;;;;;24.08;4.55;;;;;;;;;;2053102;28;20534;-63
2023/04/21 04:19:56;;;;;;;31.77;4.40;;;;;;;;;;2052694;28;20684;-63
2023/04/21 04:21:15;;;;;;;28.45;3.78;;;;;;;;;;2052335;28;20026;-64
2023/04/21 04:22:34;;;;;;;21.40;4.47;;;;;;;;;;2054649;28;20035;-63
2023/04/21 04:23:53;;;;;;;37.33;6.10;;;;;;;;;;2052591;28;20023;-63
2023/04/21 04:25:13;;;;;;;26.50;4.68;;;;;;;;;;2049469;28;20459;-64
2023/04/21 04:26:33;;;;;;;22.83;4.38;;;;;;;;;;2047072;28;20030;-64
2023/04/21 04:27:52;;;;;;;11.90;3.10;;;;;;;;;;2050887;28;20030;-65
2023/04/21 04:29:12;;;;;;;15.20;3.80;;;;;;;;;;2054135;28;20026;-64
2023/04/21 04:30:32;;;;;;;23.98;4.95;;;;;;;;;;2053164;28;20703;-64
2023/04/21 04:31:51;;;;;;;19.42;4.45;;;;;;;;;;2053197;28;20038;-64
2023/04/21 04:33:10;;;;;;;13.60;4.38;;;;;;;;;;2055918;28;20023;-64
2023/04/21 04:34:29;;;;;;;18.33;4.18;;;;;;;;;;2055985;28;20079;-63
2023/04/21 04:35:48;;;;;;;23.08;3.67;;;;;;;;;;2055769;28;20031;-63
2023/04/21 04:37:09;;;;;;;18.10;4.10;;;;;;;;;;2052864;28;20129;-63
2023/04/21 04:38:29;;;;;;;19.90;4.20;;;;;;;;;;2055138;28;20027;-63
2023/04/21 04:39:51;;;;;;;15.10;4.10;;;;;;;;;;2053144;28;20027;-63
2023/04/21 04:41:11;;;;;;;18.40;3.78;;;;;;;;;;2051423;28;20927;-63
2023/04/21 04:42:31;;;;;;;17.17;3.28;;;;;;;;;;2052640;28;20057;-65
2023/04/21 04:43:51;;;;;;;19.02;3.95;;;;;;;;;;2054260;28;20492;-63
2023/04/21 04:45:10;;;;;;;11.65;3.92;;;;;;;;;;2051777;28;20490;-63
2023/04/21 04:46:28;;;;;;;16.38;3.53;;;;;;;;;;2055258;28;20023;-63
2023/04/21 04:47:50;;;;;;;20.08;4.30;;;;;;;;;;2053025;28;20496;-64
2023/04/21 04:49:10;;;;;;;16.88;4.28;;;;;;;;;;2052321;28;20082;-63
2023/04/21 04:50:29;;;;;;;18.40;4.53;;;;;;;;;;2053452;28;20018;-63
2023/04/21 04:51:48;;;;;;;19.52;3.53;;;;;;;;;;2051285;28;20043;-63
2023/04/21 04:53:07;;;;;;;10.63;3.58;;;;;;;;;;2053840;28;20578;-63
2023/04/21 04:54:27;;;;;;;10.77;3.13;;;;;;;;;;2054912;28;20030;-63
2023/04/21 04:55:46;;;;;;;16.55;4.15;;;;;;;;;;2054122;28;20023;-64
2023/04/21 04:57:05;;;;;;;15.93;3.30;;;;;;;;;;2052055;28;20421;-63
2023/04/21 04:58:24;;;;;;;27.88;4.43;;;;;;;;;;2052301;28;20461;-63
2023/04/21 04:59:44;;;;;;;10.38;3.50;;;;;;;;;;2050531;28;20479;-63
2023/04/21 05:01:15;;;;;;;15.50;4.25;;;;;;;;;;2050214;28;20428;-64
2023/04/21 05:02:34;;;;;;;19.55;3.30;;;;;;;;;;2050020;28;21293;-64
2023/04/21 05:03:53;;;;;;;11.48;3.20;;;;;;;;;;2050503;28;20063;-63
2023/04/21 05:05:12;;;;;;;11.00;2.60;;;;;;;;;;2050423;28;20510;-63
2023/04/21 05:06:31;;;;;;;18.55;3.95;;;;;;;;;;2049553;28;20516;-63
2023/04/21 05:07:50;;;;;;;11.98;3.10;;;;;;;;;;2049331;28;20484;-63
2023/04/21 05:09:09;;;;;;;10.65;3.00;;;;;;;;;;2053129;28;20082;-64
2023/04/21 05:10:28;;;;;;;19.67;3.88;;;;;;;;;;2053100;28;20039;-63
2023/04/21 05:11:46;;;;;;;9.75;3.33;;;;;;;;;;2051262;28;20028;-64
2023/04/21 05:13:05;;;;;;;16.15;3.10;;;;;;;;;;2048430;28;20023;-64
2023/04/21 05:14:25;;;;;;;25.60;4.55;;;;;;;;;;2050720;28;20153;-64
2023/04/21 05:15:44;;;;;;;22.83;3.65;;;;;;;;;;2050191;28;20023;-63
2023/04/21 05:17:04;;;;;;;18.83;3.70;;;;;;;;;;2051639;28;20115;-66
2023/04/21 05:18:22;;;;;;;17.30;3.38;;;;;;;;;;2051387;28;20405;-63
2023/04/21 05:19:41;;;;;;;17.27;3.45;;;;;;;;;;2055733;28;20336;-63
2023/04/21 05:21:01;;;;;;;25.10;4.10;;;;;;;;;;2054878;28;20027;-64
2023/04/21 05:22:20;;;;;;;33.38;4.38;;;;;;;;;;2054820;28;20039;-64
2023/04/21 05:23:39;;;;;;;20.00;3.75;;;;;;;;;;2055689;28;20039;-64
2023/04/21 05:24:58;;;;;;;47.35;5.60;;;;;;;;;;2053889;28;20035;-66
2023/04/21 05:26:17;;;;;;;41.42;5.55;;;;;;;;;;2052320;28;20035;-64
2023/04/21 05:27:36;;;;;;;28.92;4.28;;;;;;;;;;2053511;28;20420;-64
2023/04/21 05:28:55;;;;;;;33.90;4.05;;;;;;;;;;2054159;28;20400;-64
2023/04/21 05:30:14;;;;;;;24.40;4.97;;;;;;;;;;2053839;28;20027;-65
2023/04/21 05:31:33;;;;;;;22.40;3.95;;;;;;;;;;2053600;28;20106;-64
2023/04/21 05:32:52;;;;;;;32.65;3.92;;;;;;;;;;2054868;28;20035;-64
2023/04/21 05:34:11;;;;;;;31.75;3.28;;;;;;;;;;2054906;28;20477;-64
2023/04/21 05:35:30;;;;;;;24.05;4.05;;;;;;;;;;2054935;28;20031;-66
2023/04/21 05:36:51;;;;;;;44.92;4.68;;;;;;;;;;2053830;28;20066;-65
2023/04/21 05:38:10;;;;;;;33.03;3.85;;;;;;;;;;2052837;28;20500;-65
2023/04/21 05:39:29;;;;;;;31.33;3.92;;;;;;;;;;2055133;28;20050;-65
2023/04/21 05:40:54;;;;;;;21.38;3.83;;;;;;;;;;2053219;28;20042;-65
2023/04/21 05:42:14;;;;;;;26.27;4.38;;;;;;;;;;2055268;28;20026;-65
2023/04/21 05:43:33;;;;;;;20.27;3.88;;;;;;;;;;2054387;28;20117;-64
2023/04/21 05:44:53;;;;;;;35.97;3.85;;;;;;;;;;2055079;28;20447;-65
2023/04/21 05:46:12;;;;;;;30.30;4.05;;;;;;;;;;2053139;28;20035;-65
2023/04/21 05:47:30;;;;;;;20.38;3.22;;;;;;;;;;2051245;28;20031;-65
2023/04/21 05:48:49;;;;;;;22.90;3.00;;;;;;;;;;2054493;28;20105;-65
2023/04/21 05:50:09;;;;;;;12.70;2.15;;;;;;;;;;2052393;28;20107;-65
2023/04/21 05:51:28;;;;;;;20.63;3.63;;;;;;;;;;2051733;28;20027;-65
2023/04/21 05:52:47;;;;;;;24.02;3.35;;;;;;;;;;2053620;28;20134;-64
2023/04/21 05:54:06;;;;;;;19.17;3.28;;;;;;;;;;2052521;28;20035;-64
2023/04/21 05:55:25;;;;;;;30.65;3.72;;;;;;;;;;2052984;28;20055;-64
2023/04/21 05:56:44;;;;;;;16.63;3.50;;;;;;;;;;2052360;28;20078;-65
2023/04/21 05:58:03;;;;;;;23.77;3.13;;;;;;;;;;2052352;28;20039;-64
2023/04/21 05:59:22;;;;;;;22.63;3.15;;;;;;;;;;2053881;28;20035;-65
2023/04/21 06:00:40;;;;;;;15.95;2.95;;;;;;;;;;2052549;28;20020;-64
2023/04/21 06:01:59;;;;;;;21.15;3.78;;;;;;;;;;2054043;28;20038;-65
2023/04/21 06:03:18;;;;;;;23.80;2.72;;;;;;;;;;2052745;28;20032;-64
2023/04/21 06:04:37;;;;;;;21.13;3.10;;;;;;;;;;2053032;28;20035;-65
2023/04/21 06:05:57;;;;;;;16.30;2.80;;;;;;;;;;2054464;28;20058;-65
2023/04/21 06:07:17;;;;;;;29.98;3.00;;;;;;;;;;2053189;28;20027;-64
2023/04/21 06:08:36;;;;;;;29.30;3.70;;;;;;;;;;2051981;28;20035;-65
2023/04/21 06:09:56;;;;;;;19.48;2.50;;;;;;;;;;2052779;28;20024;-65
2023/04/21 06:11:15;;;;;;;17.38;2.90;;;;;;;;;;2052106;28;20031;-66
2023/04/21 06:12:35;;;;;;;18.17;2.63;;;;;;;;;;2052235;28;20140;-65
2023/04/21 06:13:57;;;;;;;16.05;3.15;;;;;;;;;;2053753;28;20039;-64
2023/04/21 06:15:16;;;;;;;21.08;2.72;;;;;;;;;;2052524;28;20031;-65
2023/04/21 06:16:35;;;;;;;27.88;3.97;;;;;;;;;;2052110;28;20031;-65
2023/04/21 06:17:54;;;;;;;11.77;2.25;;;;;;;;;;2051793;28;20045;-64
2023/04/21 06:19:13;;;;;;;15.52;2.03;;;;;;;;;;2052727;28;20043;-66
2023/04/21 06:20:32;;;;;;;30.55;2.70;;;;;;;;;;2051182;28;20027;-65
2023/04/21 06:21:51;;;;;;;36.28;3.78;;;;;;;;;;2050763;28;20035;-64
2023/04/21 06:23:10;;;;;;;27.23;2.63;;;;;;;;;;2051920;28;20039;-65
2023/04/21 06:24:32;;;;;;;12.52;2.10;;;;;;;;;;2052178;28;20031;-65
2023/04/21 06:26:03;;;;;;;14.88;2.58;;;;;;;;;;2050504;28;20027;-64
2023/04/21 06:27:22;;;;;;;24.08;3.28;;;;;;;;;;2050488;28;20043;-65
2023/04/21 06:28:41;;;;;;;15.95;1.85;;;;;;;;;;2054467;28;20026;-65
2023/04/21 06:30:00;;;;;;;24.02;2.13;;;;;;;;;;2052893;28;20098;-65
2023/04/21 06:31:19;;;;;;;17.88;2.45;;;;;;;;;;2050074;28;20536;-65
2023/04/21 06:32:38;;;;;;;13.65;2.20;;;;;;;;;;2052262;28;20035;-64
2023/04/21 06:33:56;;;;;;;18.83;2.42;;;;;;;;;;2052410;28;20023;-65
2023/04/21 06:35:16;;;;;;;10.45;2.63;;;;;;;;;;2053276;28;20385;-65
2023/04/21 06:36:35;;;;;;;12.68;2.60;;;;;;;;;;2051156;28;20480;-65
2023/04/21 06:37:54;;;;;;;17.52;2.70;;;;;;;;;;2045441;28;20031;-65
2023/04/21 06:39:12;;;;;;;27.50;3.13;;;;;;;;;;2048658;28;20122;-65
2023/04/21 06:40:32;;;;;;;18.02;2.30;;;;;;;;;;2050936;28;20035;-65
2023/04/21 06:41:51;;;;;;;9.50;1.95;;;;;;;;;;2051576;28;20047;-65
2023/04/21 06:43:10;;;;;;;11.93;2.55;;;;;;;;;;2056167;28;20039;-65
2023/04/21 06:44:31;;;;;;;20.33;2.00;;;;;;;;;;2050744;28;20039;-65
2023/04/21 06:45:50;;;;;;;18.35;2.42;;;;;;;;;;2051551;28;20023;-64
2023/04/21 06:47:09;;;;;;;18.92;2.33;;;;;;;;;;2053547;28;20028;-65
2023/04/21 06:48:29;;;;;;;13.82;2.05;;;;;;;;;;2051615;28;20129;-65
2023/04/21 06:49:48;;;;;;;12.23;2.10;;;;;;;;;;2051844;28;20026;-65
2023/04/21 06:51:07;;;;;;;7.47;2.00;;;;;;;;;;2051852;28;20054;-65
2023/04/21 06:52:26;;;;;;;8.48;2.15;;;;;;;;;;2051255;28;20047;-65
2023/04/21 06:53:45;;;;;;;17.55;2.00;;;;;;;;;;2051147;28;20026;-65
2023/04/21 06:55:04;;;;;;;11.63;2.42;;;;;;;;;;2052560;28;20035;-65
2023/04/21 06:56:23;;;;;;;21.10;2.55;;;;;;;;;;2049533;28;20158;-66
2023/04/21 06:57:42;;;;;;;4.40;1.63;;;;;;;;;;2049244;28;20038;-65
2023/04/21 06:59:02;;;;;;;7.57;2.00;;;;;;;;;;2053139;28;20519;-65
2023/04/21 07:00:21;;;;;;;8.63;2.80;;;;;;;;;;2052413;28;20034;-66
2023/04/21 07:01:40;;;;;;;9.85;2.20;;;;;;;;;;2049700;28;20038;-65
2023/04/21 07:03:00;;;;;;;11.15;2.50;;;;;;;;;;2051779;28;20078;-65
2023/04/21 07:04:19;;;;;;;12.88;2.72;;;;;;;;;;2052247;28;20051;-65
2023/04/21 07:05:38;;;;;;;21.33;3.53;;;;;;;;;;2051018;28;20042;-65
2023/04/21 07:06:57;;;;;;;26.80;3.60;;;;;;;;;;2052138;28;20031;-65
2023/04/21 07:08:16;;;;;;;13.20;2.58;;;;;;;;;;2051024;28;20485;-65
2023/04/21 07:09:35;;;;;;;9.30;2.10;;;;;;;;;;2048507;28;20039;-65
2023/04/21 07:10:54;;;;;;;16.10;2.55;;;;;;;;;;2051780;28;20482;-65
2023/04/21 07:12:13;;;;;;;23.52;3.53;;;;;;;;;;2051875;28;20027;-65
2023/04/21 07:13:32;;;;;;;16.13;2.67;;;;;;;;;;2051882;28;20043;-66
2023/04/21 07:14:51;;;;;;;10.98;2.42;;;;;;;;;;2051927;28;20038;-65
2023/04/21 07:16:10;;;;;;;16.25;2.50;;;;;;;;;;2049528;28;20484;-66
2023/04/21 07:17:29;;;;;;;7.00;1.90;;;;;;;;;;2052947;28;20034;-65
2023/04/21 07:18:48;;;;;;;8.23;2.00;;;;;;;;;;2050731;28;20027;-65
2023/04/21 07:20:07;;;;;;;12.68;1.92;;;;;;;;;;2054422;28;20045;-65
2023/04/21 07:21:26;;;;;;;7.38;2.50;;;;;;;;;;2051271;28;20031;-65
2023/04/21 07:22:45;;;;;;;8.82;1.80;;;;;;;;;;2054047;28;20027;-65
2023/04/21 07:24:04;;;;;;;7.80;1.80;;;;;;;;;;2053015;28;20122;-66
2023/04/21 07:25:23;;;;;;;7.18;1.40;;;;;;;;;;2051318;28;20035;-65
2023/04/21 07:26:42;;;;;;;13.15;1.80;;;;;;;;;;2052819;28;20035;-65
2023/04/21 07:28:02;;;;;;;3.22;1.58;;;;;;;;;;2050851;28;20558;-65
2023/04/21 07:29:21;;;;;;;7.53;1.77;;;;;;;;;;2052132;28;20035;-65
2023/04/21 07:30:40;;;;;;;7.95;1.67;;;;;;;;;;2050653;28;20034;-65
2023/04/21 07:31:59;;;;;;;5.78;1.77;;;;;;;;;;2050794;28;20027;-65
2023/04/21 07:33:18;;;;;;;6.05;2.00;;;;;;;;;;2050701;28;20031;-65
2023/04/21 07:34:37;;;;;;;15.32;2.72;;;;;;;;;;2050258;28;20031;-65
2023/04/21 07:35:56;;;;;;;5.60;2.20;;;;;;;;;;2050325;28;20052;-65
2023/04/21 07:37:15;;;;;;;9.13;2.80;;;;;;;;;;2051725;28;20455;-65
2023/04/21 07:38:34;;;;;;;6.88;2.75;;;;;;;;;;2051310;28;20121;-65
2023/04/21 07:39:53;;;;;;;5.97;2.53;;;;;;;;;;2052615;28;20027;-65
2023/04/21 07:41:12;;;;;;;11.35;3.20;;;;;;;;;;2052023;28;20043;-65
2023/04/21 07:42:31;;;;;;;10.88;2.63;;;;;;;;;;2052179;28;20031;-65
2023/04/21 07:43:50;;;;;;;9.10;2.75;;;;;;;;;;2052655;28;20023;-65
2023/04/21 07:45:09;;;;;;;7.78;2.67;;;;;;;;;;2052625;28;20031;-65
2023/04/21 07:46:30;;;;;;;3.33;2.10;;;;;;;;;;2048122;28;20031;-65
2023/04/21 07:47:50;;;;;;;9.55;2.90;;;;;;;;;;2054561;28;20022;-65
2023/04/21 07:49:09;;;;;;;9.60;2.67;;;;;;;;;;2048898;28;20027;-64
2023/04/21 07:50:28;;;;;;;6.65;2.38;;;;;;;;;;2051077;28;20043;-65
2023/04/21 07:51:47;;;;;;;8.55;2.22;;;;;;;;;;2049895;28;20023;-65